createdAt,value
2023-03-19T01:37:03.564Z,11
2023-03-19T01:42:54.369Z,10.3
2023-03-19T01:48:46.419Z,12.1
2023-03-19T01:54:37.193Z,11.1
2023-03-19T02:00:28.903Z,10
2023-03-19T02:06:20.021Z,9
2023-03-19T02:12:11.865Z,8.9
2023-03-19T02:18:03.143Z,10
2023-03-19T02:23:55.382Z,7.9
2023-03-19T02:29:48.360Z,8.4
2023-03-19T02:35:40.751Z,7.5
2023-03-19T02:41:31.593Z,6.3
2023-03-19T02:47:23.055Z,8.7
2023-03-19T02:53:13.742Z,10.4
2023-03-19T02:59:05.111Z,9.5
2023-03-19T03:04:56.259Z,10.7
2023-03-19T03:10:47.694Z,8.3
2023-03-19T03:16:38.657Z,8.4
2023-03-19T03:22:32.041Z,10.7
2023-03-19T03:28:22.905Z,8.8
2023-03-19T03:34:14.279Z,7.5
2023-03-19T03:40:05.440Z,7
2023-03-19T03:45:55.858Z,7.5
2023-03-19T03:51:46.686Z,9.5
2023-03-19T03:57:38.324Z,8.3
2023-03-19T04:03:30.041Z,7.4
2023-03-19T04:09:21.978Z,7.3
2023-03-19T04:15:13.394Z,6
2023-03-19T04:21:05.049Z,7.3
2023-03-19T04:26:56.297Z,8.2
2023-03-19T04:32:48.761Z,11.3
2023-03-19T04:38:40.385Z,6.1
2023-03-19T04:44:32.263Z,6.8
2023-03-19T04:50:23.518Z,7.1
2023-03-19T04:56:14.870Z,8.6
2023-03-19T05:02:06.288Z,8.6
2023-03-19T05:07:57.040Z,7
2023-03-19T05:13:50.033Z,6.6
2023-03-19T05:19:41.264Z,7.1
2023-03-19T05:25:32.155Z,7.4
2023-03-19T05:31:24.122Z,5.9
2023-03-19T05:37:16.305Z,7
2023-03-19T05:43:08.068Z,6.7
2023-03-19T05:48:58.839Z,4.2
2023-03-19T05:54:50.313Z,7.1
2023-03-19T06:00:41.604Z,6
2023-03-19T06:06:32.261Z,6.2
2023-03-19T06:12:23.026Z,4.3
2023-03-19T06:18:13.887Z,6.2
2023-03-19T06:24:05.961Z,6
2023-03-19T06:29:57.047Z,8
2023-03-19T06:35:48.354Z,6.4
2023-03-19T06:41:39.267Z,7.2
2023-03-19T06:47:30.817Z,9.3
2023-03-19T06:53:23.033Z,7.7
2023-03-19T06:59:14.995Z,6.9
2023-03-19T07:05:06.696Z,6.8
2023-03-19T07:10:57.849Z,6.7
2023-03-19T07:16:49.081Z,5.1
2023-03-19T07:22:40.982Z,7.8
2023-03-19T07:28:33.875Z,8.6
2023-03-19T07:34:24.645Z,7.3
2023-03-19T07:40:16.588Z,5.7
2023-03-19T07:46:08.177Z,6.4
2023-03-19T07:51:57.443Z,5.8
2023-03-19T07:57:46.812Z,5.3
2023-03-19T08:03:39.393Z,5.6
2023-03-19T08:09:31.331Z,5.9
2023-03-19T08:15:23.532Z,7.5
2023-03-19T08:21:16.397Z,5.6
2023-03-19T08:27:07.738Z,5.2
2023-03-19T08:33:00.508Z,6.7
2023-03-19T08:38:52.469Z,5.4
2023-03-19T08:44:45.100Z,7.2
2023-03-19T08:50:38.227Z,5.8
2023-03-19T08:56:31.078Z,5.2
2023-03-19T09:02:22.089Z,8
2023-03-19T09:08:13.099Z,7.7
2023-03-19T09:14:03.901Z,8
2023-03-19T09:19:55.423Z,6.7
2023-03-19T09:25:45.922Z,6.5
2023-03-19T09:31:37.713Z,7.4
2023-03-19T09:37:28.391Z,7.5
2023-03-19T09:43:20.510Z,10
2023-03-19T09:49:11.236Z,6.9
2023-03-19T09:55:01.898Z,6.4
2023-03-19T10:00:52.220Z,7
2023-03-19T10:06:42.814Z,5.5
2023-03-19T10:12:32.993Z,6.7
2023-03-19T10:18:24.192Z,6.4
2023-03-19T10:24:15.616Z,4.9
2023-03-19T10:30:06.102Z,5
2023-03-19T10:35:56.562Z,5.5
2023-03-19T10:41:47.167Z,5.4
2023-03-19T10:47:37.582Z,4.7
2023-03-19T10:53:28.466Z,5.8
2023-03-19T10:59:19.369Z,5.7
2023-03-19T11:05:09.290Z,4.8
2023-03-19T11:10:59.895Z,6.1
2023-03-19T11:16:51.405Z,6
2023-03-19T11:22:42.169Z,5
2023-03-19T11:29:42.290Z,3.2
2023-03-19T11:35:31.122Z,4.3
2023-03-19T11:41:23.556Z,5.1
2023-03-19T11:47:31.973Z,5.7
2023-03-19T11:53:20.997Z,4.4
2023-03-19T11:59:11.291Z,7.6
2023-03-19T12:05:04.699Z,4.8
2023-03-19T12:10:55.606Z,4.1
2023-03-19T12:16:53.542Z,4.3
2023-03-19T12:22:43.309Z,4.5
2023-03-19T12:28:33.812Z,3.5
2023-03-19T12:34:27.636Z,3.3
2023-03-19T12:40:20.168Z,3.4
2023-03-19T12:46:11.395Z,4
2023-03-19T12:52:01.910Z,2.5
2023-03-19T12:57:53.553Z,2.5
2023-03-19T13:03:44.958Z,3.1
2023-03-19T13:09:35.629Z,2.9
2023-03-19T13:15:27.341Z,3.5
2023-03-19T13:21:18.663Z,2.9
2023-03-19T13:27:10.419Z,2.6
2023-03-19T13:33:02.439Z,3.4
2023-03-19T13:38:53.189Z,3.6
2023-03-19T13:44:44.481Z,2.8
2023-03-19T13:50:36.641Z,2.2
2023-03-19T13:56:35.011Z,1.6
2023-03-19T14:02:25.372Z,1.4
2023-03-19T14:08:16.336Z,0.8
2023-03-19T14:14:08.137Z,1.3
2023-03-19T14:20:03.558Z,1.6
2023-03-19T14:25:58.772Z,0.6
2023-03-19T14:31:50.723Z,0.5
2023-03-19T14:37:42.060Z,0.7
2023-03-19T14:43:33.091Z,0.8
2023-03-19T14:49:27.374Z,0.6
2023-03-19T14:55:19.077Z,0.3
2023-03-19T15:01:10.480Z,0.4
2023-03-19T15:07:02.786Z,0.9
2023-03-19T15:12:56.752Z,0.7
2023-03-19T15:18:57.408Z,1
2023-03-19T15:24:49.389Z,0.9
2023-03-19T15:31:47.406Z,0.7
2023-03-19T15:37:53.376Z,1.9
2023-03-19T15:43:44.036Z,0.7
2023-03-19T15:49:34.137Z,0.6
2023-03-19T15:55:23.767Z,0.8
2023-03-19T16:01:19.073Z,0.5
2023-03-19T16:07:12.556Z,1.2
2023-03-19T16:13:03.916Z,1
2023-03-19T16:18:55.912Z,8
2023-03-19T16:24:49.008Z,5.3
2023-03-19T16:30:40.629Z,1.1
2023-03-19T16:36:30.884Z,0.8
2023-03-19T16:42:22.600Z,1.8
2023-03-19T16:48:14.568Z,3.2
2023-03-19T16:54:06.650Z,1.7
2023-03-19T16:59:59.141Z,1.3
2023-03-19T17:05:50.688Z,1.7
2023-03-19T17:11:42.669Z,4.3
2023-03-19T17:17:36.131Z,1.2
2023-03-19T17:23:27.522Z,1
2023-03-19T17:29:20.161Z,2.1
2023-03-19T17:35:30.606Z,2.1
2023-03-19T17:41:21.497Z,2.6
2023-03-19T17:47:32.724Z,4.8
2023-03-19T17:54:00.821Z,9.9
2023-03-19T17:59:56.327Z,3.5
2023-03-19T18:05:48.217Z,3.7
2023-03-19T18:11:45.832Z,2.9
2023-03-19T18:17:38.421Z,3.8
2023-03-19T18:23:29.141Z,5.1
2023-03-19T18:29:20.250Z,7.3
2023-03-19T18:35:11.200Z,6.1
2023-03-19T18:41:02.803Z,6.4
2023-03-19T18:46:55.681Z,6.4
2023-03-19T18:52:45.591Z,6.9
2023-03-19T18:58:37.532Z,6.8
2023-03-19T19:04:26.793Z,6.7
2023-03-19T21:44:53.385Z,17.6
2023-03-19T21:56:53.707Z,20.1
2023-03-19T22:08:37.534Z,35.7
2023-03-19T22:14:46.165Z,44.7
2023-03-19T22:33:05.930Z,54.8
2023-03-19T22:39:05.075Z,53.2
2023-03-19T22:45:19.721Z,55
2023-03-19T22:51:24.906Z,58
2023-03-19T22:57:31.858Z,56
2023-03-19T23:03:36.154Z,61.1
2023-03-19T23:09:31.783Z,56.6
2023-03-19T23:15:57.231Z,52.6
2023-03-19T23:22:03.004Z,49.5
2023-03-19T23:46:44.555Z,70.3
2023-03-19T23:58:43.361Z,75.2
